createdAt,value
2023-03-06T00:02:16.763Z,11.80
2023-03-06T00:05:10.334Z,9.40
2023-03-06T00:08:02.396Z,8.00
2023-03-06T00:10:54.395Z,12.00
2023-03-06T00:13:46.510Z,9.10
2023-03-06T00:16:38.526Z,7.40
2023-03-06T00:19:30.530Z,10.70
2023-03-06T00:22:22.556Z,7.70
2023-03-06T00:25:17.922Z,8.70
2023-03-06T00:27:58.629Z,10.20
2023-03-06T00:30:50.964Z,8.30
2023-03-06T00:33:43.531Z,9.60
2023-03-06T00:36:35.509Z,8.40
2023-03-06T00:39:27.501Z,11.00
2023-03-06T00:42:20.536Z,11.60
2023-03-06T00:45:13.787Z,11.70
2023-03-06T00:47:48.501Z,9.80
2023-03-06T00:50:40.559Z,9.80
2023-03-06T00:53:32.584Z,11.80
2023-03-06T00:56:25.173Z,9.10
2023-03-06T00:59:17.279Z,13.50
2023-03-06T01:01:49.490Z,12.30
2023-03-06T01:04:42.078Z,12.20
2023-03-06T01:07:24.116Z,10.90
2023-03-06T01:10:16.208Z,10.40
2023-03-06T01:12:58.637Z,9.10
2023-03-06T01:15:50.729Z,14.20
2023-03-06T01:18:27.960Z,14.10
2023-03-06T01:21:19.968Z,10.70
2023-03-06T01:24:12.111Z,13.10
2023-03-06T01:27:04.280Z,13.70
2023-03-06T01:29:56.364Z,15.60
2023-03-06T01:32:49.176Z,16.00
2023-03-06T01:35:23.826Z,13.70
2023-03-06T01:38:16.671Z,12.60
2023-03-06T01:40:51.406Z,13.80
2023-03-06T01:43:44.405Z,16.20
2023-03-06T01:46:42.062Z,15.30
2023-03-06T01:49:21.059Z,15.70
2023-03-06T01:52:16.655Z,16.20
2023-03-06T01:55:12.233Z,15.70
2023-03-06T01:58:11.411Z,17.80
2023-03-06T02:01:03.472Z,16.50
2023-03-06T02:03:56.331Z,16.30
2023-03-06T02:06:40.678Z,17.60
2023-03-06T02:09:34.697Z,13.90
2023-03-06T02:12:27.424Z,16.30
2023-03-06T02:15:23.448Z,16.10
2023-03-06T02:18:11.443Z,16.40
2023-03-06T02:21:06.928Z,15.40
2023-03-06T02:24:09.756Z,15.20
2023-03-06T02:27:03.391Z,18.60
2023-03-06T02:29:56.113Z,16.50
2023-03-06T02:32:48.260Z,15.20
2023-03-06T02:35:41.766Z,18.00
2023-03-06T02:38:40.656Z,20.70
2023-03-06T02:41:32.921Z,17.30
2023-03-06T02:44:27.406Z,15.80
2023-03-06T02:47:19.532Z,19.50
2023-03-06T02:50:12.793Z,20.20
2023-03-06T02:53:05.086Z,17.90
2023-03-06T02:55:57.369Z,21.80
2023-03-06T02:58:49.545Z,19.40
2023-03-06T03:01:41.689Z,21.10
2023-03-06T03:04:33.823Z,17.50
2023-03-06T03:07:08.965Z,22.10
2023-03-06T03:10:01.126Z,21.20
2023-03-06T03:12:36.225Z,18.00
2023-03-06T03:15:28.280Z,20.40
2023-03-06T03:18:20.351Z,20.80
2023-03-06T03:20:55.447Z,23.10
2023-03-06T03:23:47.601Z,19.10
2023-03-06T03:26:39.635Z,20.70
2023-03-06T03:32:08.392Z,19.60
2023-03-06T03:35:00.669Z,23.00
2023-03-06T03:37:54.681Z,22.00
2023-03-06T03:40:46.817Z,22.40
2023-03-06T03:43:39.049Z,19.20
2023-03-06T03:46:13.732Z,23.50
2023-03-06T03:49:05.888Z,19.50
2023-03-06T03:51:57.882Z,21.00
2023-03-06T03:54:49.855Z,22.30
2023-03-06T03:57:43.114Z,21.10
2023-03-06T04:00:35.151Z,15.80
2023-03-06T04:03:27.183Z,19.70
2023-03-06T04:06:19.425Z,20.80
2023-03-06T04:09:11.530Z,19.30
2023-03-06T04:12:03.714Z,19.70
2023-03-06T04:14:55.760Z,18.20
2023-03-06T04:17:47.801Z,20.20
2023-03-06T04:20:40.248Z,21.70
2023-03-06T04:23:32.644Z,15.40
2023-03-06T04:26:24.680Z,18.70
2023-03-06T04:29:17.072Z,16.00
2023-03-06T04:32:10.334Z,21.40
2023-03-06T04:35:02.368Z,17.40
2023-03-06T04:37:36.997Z,17.90
2023-03-06T04:40:31.277Z,19.20
2023-03-06T04:43:23.554Z,19.80
2023-03-06T04:46:15.608Z,15.30
2023-03-06T04:49:08.022Z,20.30
2023-03-06T04:52:00.145Z,21.50
2023-03-06T04:54:34.799Z,16.10
2023-03-06T04:57:26.821Z,20.10
2023-03-06T05:00:21.450Z,23.60
2023-03-06T05:03:04.697Z,21.90
2023-03-06T05:05:56.773Z,19.10
2023-03-06T05:08:49.133Z,18.60
2023-03-06T05:11:26.096Z,22.10
2023-03-06T05:14:18.074Z,20.20
2023-03-06T05:16:58.999Z,20.20
2023-03-06T05:19:51.080Z,19.00
2023-03-06T05:22:43.381Z,17.60
2023-03-06T05:25:35.486Z,23.00
2023-03-06T05:28:28.720Z,20.60
2023-03-06T05:31:20.804Z,21.10
2023-03-06T05:34:16.244Z,23.50
2023-03-06T05:37:08.439Z,22.80
2023-03-06T05:40:01.310Z,24.90
2023-03-06T05:42:53.363Z,28.00
2023-03-06T05:45:46.270Z,23.50
2023-03-06T05:48:38.571Z,25.00
2023-03-06T05:51:30.797Z,29.20
2023-03-06T05:54:13.240Z,24.90
2023-03-06T05:57:06.144Z,31.20
2023-03-06T05:59:58.320Z,34.10
2023-03-06T06:02:50.521Z,28.10
2023-03-06T06:05:43.135Z,27.10
2023-03-06T06:08:37.113Z,23.90
2023-03-06T06:11:13.524Z,22.30
2023-03-06T06:14:05.546Z,28.70
2023-03-06T06:16:57.728Z,28.70
2023-03-06T06:19:49.713Z,22.50
2023-03-06T06:22:41.710Z,23.90
2023-03-06T06:25:34.100Z,27.70
2023-03-06T06:28:26.135Z,20.60
2023-03-06T06:31:18.154Z,20.80
2023-03-06T06:34:11.581Z,22.10
2023-03-06T06:36:47.120Z,23.40
2023-03-06T06:39:39.265Z,26.90
2023-03-06T06:42:37.755Z,21.60
2023-03-06T06:45:31.781Z,23.20
2023-03-06T06:48:23.846Z,12.80
2023-03-06T06:51:16.091Z,20.00
2023-03-06T06:53:59.474Z,15.50
2023-03-06T06:56:31.445Z,14.80
2023-03-06T06:59:24.113Z,11.70
2023-03-06T07:02:01.274Z,11.30
2023-03-06T07:04:52.322Z,10.20
2023-03-06T07:07:50.936Z,11.20
2023-03-06T07:10:43.042Z,12.40
2023-03-06T07:13:35.440Z,11.90
2023-03-06T07:16:17.302Z,12.10
2023-03-06T07:19:09.857Z,9.60
2023-03-06T07:21:52.233Z,8.70
2023-03-06T07:24:44.356Z,11.60
2023-03-06T07:27:36.461Z,14.10
2023-03-06T07:30:28.512Z,8.50
2023-03-06T07:33:20.612Z,10.30
2023-03-06T07:36:14.021Z,9.10
2023-03-06T07:39:06.490Z,10.20
2023-03-06T07:41:48.817Z,8.70
2023-03-06T07:44:40.850Z,8.90
2023-03-06T07:47:18.166Z,11.30
2023-03-06T07:50:03.047Z,10.10
2023-03-06T07:52:46.210Z,8.70
2023-03-06T07:55:34.362Z,8.50
2023-03-06T07:58:15.100Z,8.40
2023-03-06T08:01:09.451Z,9.40
2023-03-06T08:03:44.945Z,9.00
2023-03-06T08:06:21.608Z,8.30
2023-03-06T08:09:04.836Z,9.90
2023-03-06T08:11:42.302Z,8.10
2023-03-06T08:14:37.075Z,10.60
2023-03-06T08:17:11.604Z,8.70
2023-03-06T08:20:03.573Z,8.10
2023-03-06T08:22:55.528Z,7.90
2023-03-06T08:25:47.466Z,8.20
2023-03-06T08:28:39.536Z,7.90
2023-03-06T08:31:33.620Z,10.00
2023-03-06T08:34:18.951Z,7.30
2023-03-06T08:37:10.925Z,6.80
2023-03-06T08:40:04.587Z,8.10
2023-03-06T08:42:56.673Z,7.90
2023-03-06T08:45:54.311Z,9.40
2023-03-06T08:48:47.700Z,6.60
2023-03-06T08:51:23.056Z,9.50
2023-03-06T08:53:57.993Z,7.80
2023-03-06T08:56:34.737Z,7.90
2023-03-06T08:59:10.476Z,6.50
2023-03-06T09:02:03.972Z,11.30
2023-03-06T09:04:56.118Z,8.90
2023-03-06T09:07:43.630Z,10.40
2023-03-06T09:10:36.102Z,8.10
2023-03-06T09:13:19.329Z,8.00
2023-03-06T09:16:01.417Z,8.00
2023-03-06T09:18:54.295Z,8.90
2023-03-06T09:21:31.705Z,7.60
2023-03-06T09:24:03.598Z,7.90
2023-03-06T09:26:55.651Z,10.80
2023-03-06T09:29:47.646Z,8.80
2023-03-06T09:32:39.745Z,7.60
2023-03-06T09:35:32.006Z,9.00
2023-03-06T09:38:26.363Z,9.70
2023-03-06T09:41:26.312Z,8.20
2023-03-06T09:44:20.954Z,9.20
2023-03-06T09:47:18.375Z,8.70
2023-03-06T09:50:19.829Z,9.80
2023-03-06T09:53:04.404Z,13.90
2023-03-06T09:56:01.980Z,8.20
2023-03-06T09:58:42.927Z,14.80
2023-03-06T10:01:40.928Z,9.20
2023-03-06T10:04:26.477Z,10.30
2023-03-06T10:07:23.696Z,8.30
2023-03-06T10:10:02.173Z,11.00
2023-03-06T10:12:47.257Z,10.30
2023-03-06T10:15:42.508Z,7.80
2023-03-06T10:18:31.657Z,9.80
2023-03-06T10:21:40.176Z,10.70
2023-03-06T10:24:43.351Z,9.90
2023-03-06T10:27:37.947Z,6.50
2023-03-06T10:30:34.817Z,6.60
2023-03-06T10:33:41.333Z,7.40
2023-03-06T10:36:33.270Z,10.50
2023-03-06T10:39:25.433Z,10.80
2023-03-06T10:42:17.751Z,10.20
2023-03-06T10:45:10.596Z,9.30
2023-03-06T10:48:18.544Z,6.00
2023-03-06T10:51:20.380Z,8.00
2023-03-06T10:53:59.924Z,7.90
2023-03-06T10:56:36.102Z,9.00
2023-03-06T10:59:14.802Z,9.80
2023-03-06T11:01:58.799Z,9.10
2023-03-06T11:04:55.282Z,8.20
2023-03-06T11:07:32.231Z,8.70
2023-03-06T11:10:24.488Z,8.90
2023-03-06T11:13:24.800Z,8.10
2023-03-06T11:16:06.702Z,9.50
2023-03-06T11:18:43.169Z,8.00
2023-03-06T11:21:37.328Z,8.90
2023-03-06T11:24:16.767Z,7.70
2023-03-06T11:27:24.846Z,7.00
2023-03-06T11:30:23.371Z,10.20
2023-03-06T11:33:01.864Z,9.70
2023-03-06T11:35:51.567Z,7.70
2023-03-06T11:38:35.229Z,8.40
2023-03-06T11:41:19.248Z,7.40
2023-03-06T11:44:23.304Z,5.70
2023-03-06T11:47:15.914Z,4.40
2023-03-06T11:50:22.375Z,6.10
2023-03-06T11:53:16.621Z,6.00
2023-03-06T11:55:58.900Z,3.40
2023-03-06T11:59:23.395Z,7.40
2023-03-06T12:02:26.428Z,3.70
2023-03-06T12:05:24.299Z,3.90
2023-03-06T12:08:44.286Z,3.20
2023-03-06T12:11:33.253Z,8.30
2023-03-06T12:14:40.182Z,6.10
2023-03-06T12:17:22.694Z,5.50
2023-03-06T12:20:21.026Z,5.20
2023-03-06T12:23:26.713Z,4.90
2023-03-06T12:26:40.342Z,7.60
2023-03-06T12:29:59.810Z,4.60
2023-03-06T12:33:02.106Z,3.90
2023-03-06T12:36:13.798Z,6.30
2023-03-06T12:39:15.864Z,4.50
2023-03-06T12:42:11.297Z,5.60
2023-03-06T12:45:18.532Z,5.80
2023-03-06T12:48:17.282Z,5.70
2023-03-06T12:50:59.018Z,3.90
2023-03-06T12:53:52.833Z,6.60
2023-03-06T12:56:46.172Z,4.90
2023-03-06T12:59:43.983Z,7.40
2023-03-06T13:03:05.859Z,5.80
2023-03-06T13:06:13.927Z,8.50
2023-03-06T13:12:25.833Z,3.00
2023-03-06T13:16:06.239Z,2.00
2023-03-06T13:19:01.982Z,3.90
2023-03-06T13:22:14.092Z,4.80
2023-03-06T13:25:39.024Z,5.30
2023-03-06T13:28:40.235Z,4.50
2023-03-06T13:32:05.741Z,4.80
2023-03-06T13:34:58.137Z,5.30
2023-03-06T13:37:53.715Z,4.00
2023-03-06T13:40:39.024Z,5.60
2023-03-06T13:43:32.012Z,5.10
2023-03-06T13:46:28.736Z,3.10
2023-03-06T13:49:21.149Z,4.70
2023-03-06T13:52:24.058Z,3.40
2023-03-06T13:55:17.954Z,6.00
2023-03-06T13:58:30.755Z,5.40
2023-03-06T14:01:28.957Z,4.20
2023-03-06T14:04:34.632Z,5.20
2023-03-06T14:07:25.114Z,6.40
2023-03-06T14:10:24.053Z,5.90
2023-03-06T14:13:07.884Z,8.60
2023-03-06T14:15:59.813Z,9.80
2023-03-06T14:18:47.565Z,4.40
2023-03-06T14:21:31.854Z,5.60
2023-03-06T14:24:22.870Z,6.10
2023-03-06T14:26:57.602Z,6.90
2023-03-06T14:29:49.861Z,4.90
2023-03-06T14:32:42.959Z,4.60
2023-03-06T14:35:26.724Z,4.30
2023-03-06T14:38:17.288Z,2.80
2023-03-06T14:41:11.384Z,4.30
2023-03-06T14:44:17.999Z,5.10
2023-03-06T14:47:28.581Z,8.40
2023-03-06T14:50:29.537Z,7.70
2023-03-06T14:53:26.029Z,6.40
2023-03-06T14:56:21.197Z,3.40
2023-03-06T14:59:17.455Z,4.20
2023-03-06T15:02:12.684Z,4.10
2023-03-06T15:04:50.038Z,4.10
2023-03-06T15:07:43.055Z,4.20
2023-03-06T15:10:37.586Z,3.80
2023-03-06T15:13:31.779Z,4.60
2023-03-06T15:16:30.393Z,4.50
2023-03-06T15:19:06.281Z,5.50
2023-03-06T15:21:41.391Z,5.30
2023-03-06T15:24:37.948Z,5.20
2023-03-06T15:27:32.270Z,5.60
2023-03-06T15:30:32.990Z,4.80
2023-03-06T15:33:27.834Z,5.90
2023-03-06T15:36:17.808Z,7.00
2023-03-06T15:39:33.776Z,4.30
2023-03-06T15:42:28.024Z,5.80
2023-03-06T15:45:22.486Z,7.50
2023-03-06T15:48:19.196Z,8.70
2023-03-06T15:51:11.288Z,7.10
2023-03-06T15:54:11.857Z,9.80
2023-03-06T15:56:51.704Z,10.40
2023-03-06T15:59:36.960Z,12.50
2023-03-06T16:02:29.079Z,13.10
2023-03-06T16:05:22.246Z,11.20
2023-03-06T16:08:14.926Z,9.50
2023-03-06T16:11:07.319Z,6.30
2023-03-06T16:13:45.331Z,9.70
2023-03-06T16:16:39.574Z,11.20
2023-03-06T16:19:31.700Z,12.80
2023-03-06T16:22:23.711Z,11.60
2023-03-06T16:25:15.561Z,9.80
2023-03-06T16:28:12.322Z,11.10
2023-03-06T16:31:01.658Z,11.70
2023-03-06T16:33:36.399Z,10.50
2023-03-06T16:36:30.134Z,10.60
2023-03-06T16:39:24.612Z,9.60
2023-03-06T16:41:56.463Z,12.30
2023-03-06T16:44:48.611Z,13.20
2023-03-06T16:47:29.922Z,13.10
2023-03-06T16:50:33.028Z,11.40
2023-03-06T16:53:25.002Z,10.90
2023-03-06T16:56:15.700Z,17.10
2023-03-06T16:59:07.865Z,13.20
2023-03-06T17:01:56.090Z,17.30
2023-03-06T17:04:48.105Z,16.00
2023-03-06T17:07:22.804Z,16.70
2023-03-06T17:10:18.756Z,15.60
2023-03-06T17:13:12.404Z,17.80
2023-03-06T17:16:04.642Z,14.50
2023-03-06T17:18:58.191Z,13.30
2023-03-06T17:21:50.699Z,15.10
2023-03-06T17:24:42.813Z,14.60
2023-03-06T17:27:25.410Z,11.70
2023-03-06T17:30:18.049Z,11.40
2023-03-06T17:32:52.214Z,8.40
2023-03-06T17:35:44.174Z,10.80
2023-03-06T17:41:13.312Z,11.90
2023-03-06T17:44:05.516Z,12.60
2023-03-06T17:46:42.542Z,13.10
2023-03-06T17:49:34.628Z,10.10
2023-03-06T17:52:15.403Z,8.50
2023-03-06T17:55:09.023Z,12.80
2023-03-06T17:58:01.132Z,10.90
2023-03-06T18:00:53.488Z,12.60
2023-03-06T18:03:28.180Z,12.00
2023-03-06T18:06:22.090Z,13.40
2023-03-06T18:09:10.374Z,16.50
2023-03-06T18:11:51.114Z,17.10
2023-03-06T18:14:43.195Z,17.10
2023-03-06T18:17:24.378Z,18.30
2023-03-06T18:20:17.631Z,16.10
2023-03-06T18:23:09.828Z,17.40
2023-03-06T18:25:52.661Z,15.20
2023-03-06T18:28:47.330Z,18.50
2023-03-06T18:31:41.704Z,13.40
2023-03-06T18:34:33.700Z,14.80
2023-03-06T18:37:26.141Z,16.80
2023-03-06T18:40:01.138Z,14.60
2023-03-06T18:42:35.921Z,11.50
2023-03-06T18:45:28.028Z,15.10
2023-03-06T18:48:16.404Z,19.80
2023-03-06T18:51:10.723Z,17.50
2023-03-06T18:54:04.473Z,20.90
2023-03-06T18:56:47.357Z,19.20
2023-03-06T18:59:28.773Z,19.20
2023-03-06T19:02:21.123Z,21.10
2023-03-06T19:04:56.248Z,17.90
2023-03-06T19:07:48.784Z,22.80
2023-03-06T19:10:42.276Z,18.30
2023-03-06T19:13:34.398Z,17.90
2023-03-06T19:16:28.852Z,20.70
2023-03-06T19:19:20.891Z,18.20
2023-03-06T19:21:58.114Z,17.40
2023-03-06T19:24:46.876Z,19.30
2023-03-06T19:27:27.752Z,20.80
2023-03-06T19:30:25.374Z,20.30
2023-03-06T19:33:17.784Z,20.90
2023-03-06T19:36:12.264Z,18.50
2023-03-06T19:39:07.414Z,19.70
2023-03-06T19:41:59.484Z,20.80
2023-03-06T19:44:51.484Z,28.10
2023-03-06T19:47:43.434Z,25.00
2023-03-06T19:50:36.815Z,30.50
2023-03-06T19:53:14.056Z,26.50
2023-03-06T19:56:08.601Z,26.40
2023-03-06T19:59:00.613Z,27.50
2023-03-06T20:01:41.743Z,31.70
2023-03-06T20:04:17.041Z,29.10
2023-03-06T20:07:09.060Z,25.20
2023-03-06T20:09:50.128Z,22.60
2023-03-06T20:12:24.684Z,22.10
2023-03-06T20:14:59.210Z,19.20
2023-03-06T20:17:41.689Z,22.80
2023-03-06T20:20:16.547Z,24.70
2023-03-06T20:23:09.133Z,22.40
2023-03-06T20:26:04.462Z,21.90
2023-03-06T20:28:56.671Z,25.00
2023-03-06T20:31:49.062Z,20.80
2023-03-06T20:34:32.763Z,24.20
2023-03-06T20:37:24.741Z,22.30
2023-03-06T20:40:01.934Z,18.10
2023-03-06T20:42:54.465Z,17.50
2023-03-06T20:45:58.342Z,15.70
2023-03-06T20:48:33.375Z,16.60
2023-03-06T20:51:27.904Z,19.30
2023-03-06T20:54:20.120Z,14.80
2023-03-06T20:57:12.120Z,17.10
2023-03-06T21:00:04.591Z,14.70
2023-03-06T21:02:56.639Z,16.00
2023-03-06T21:05:50.068Z,16.40
2023-03-06T21:08:42.210Z,16.30
2023-03-06T21:11:34.793Z,14.30
2023-03-06T21:14:26.758Z,15.70
2023-03-06T21:17:18.831Z,13.30
2023-03-06T21:20:13.001Z,16.00
2023-03-06T21:23:05.003Z,14.60
2023-03-06T21:25:57.145Z,16.40
2023-03-06T21:28:49.361Z,17.20
2023-03-06T21:34:19.887Z,12.40
2023-03-06T21:37:11.925Z,16.10
2023-03-06T21:40:06.614Z,13.00
2023-03-06T21:42:49.039Z,14.60
2023-03-06T21:45:33.200Z,15.70
2023-03-06T21:48:25.249Z,16.70
2023-03-06T21:51:19.875Z,13.70
2023-03-06T21:54:13.021Z,13.80
2023-03-06T21:57:05.436Z,18.80
2023-03-06T21:59:57.480Z,15.30
2023-03-06T22:02:49.537Z,13.50
2023-03-06T22:05:41.803Z,16.50
2023-03-06T22:08:33.886Z,14.60
2023-03-06T22:13:53.177Z,14.60
2023-03-06T22:16:56.708Z,19.30
2023-03-06T22:22:28.180Z,16.80
2023-03-06T22:25:20.235Z,17.20
2023-03-06T22:28:13.060Z,14.40
2023-03-06T22:31:10.750Z,15.60
2023-03-06T22:34:03.339Z,15.20
2023-03-06T22:36:55.348Z,14.20
2023-03-06T22:39:47.427Z,17.90
2023-03-06T22:42:39.441Z,15.90
2023-03-06T22:45:34.735Z,17.70
2023-03-06T22:48:26.788Z,17.70
2023-03-06T22:51:05.838Z,18.80
2023-03-06T22:53:58.163Z,18.90
2023-03-06T22:56:30.000Z,19.10
2023-03-06T22:59:02.175Z,20.90
2023-03-06T23:01:39.379Z,20.40
2023-03-06T23:04:31.501Z,18.90
2023-03-06T23:07:23.761Z,20.70
2023-03-06T23:10:15.812Z,20.70
2023-03-06T23:13:07.962Z,22.80
2023-03-06T23:16:02.225Z,19.60
2023-03-06T23:18:54.956Z,19.70
2023-03-06T23:21:47.007Z,21.00
2023-03-06T23:24:39.274Z,21.70
2023-03-06T23:27:31.405Z,22.70
2023-03-06T23:30:23.369Z,23.50
2023-03-06T23:33:15.311Z,23.00
2023-03-06T23:36:10.174Z,25.40
2023-03-06T23:39:02.285Z,26.50
2023-03-06T23:41:54.218Z,24.90
2023-03-06T23:44:46.307Z,24.50
2023-03-06T23:47:38.357Z,21.50
2023-03-06T23:50:30.428Z,23.60
2023-03-06T23:53:23.321Z,25.60
2023-03-06T23:56:16.022Z,24.20
2023-03-06T23:59:08.134Z,24.60
